Time,TemperatureF,DewpointF,PressureIn,WindDirection,WindDirectionDegrees,WindSpeedMPH,WindSpeedGustMPH,Humidity,HourlyPrecipIn,Conditions,Clouds,dailyrainin,SoftwareType,DateUTC
2013-04-30 00:03:00,55.9,49.5,29.71,SSW,207,0.6,3.0,79,0.00,CLR,,0.00,WeatherDisplay:10.37,2013-04-30 07:03:00,
2013-04-30 00:08:00,55.6,49.2,29.71,SSW,208,0.2,2.3,79,0.00,CLR,,0.00,WeatherDisplay:10.37,2013-04-30 07:08:00,
2013-04-30 00:13:00,55.3,48.9,29.71,SSW,210,0.1,1.2,79,0.00,CLR,,0.00,WeatherDisplay:10.37,2013-04-30 07:13:00,
2013-04-30 00:18:00,55.1,49.0,29.71,SW,214,0.7,4.0,80,0.00,CLR,,0.00,WeatherDisplay:10.37,2013-04-30 07:18:00,
2013-04-30 00:23:00,54.8,49.1,29.71,SW,214,0.1,3.5,81,0.00,CLR,,0.00,WeatherDisplay:10.37,2013-04-30 07:23:00,
2013-04-30 00:28:00,54.5,49.1,29.71,SW,218,0.9,3.5,82,0.00,CLR,,0.00,WeatherDisplay:10.37,2013-04-30 07:28:00,
2013-04-30 00:33:00,54.5,49.1,29.71,SSW,212,2.0,5.0,82,0.00,CLR,,0.00,WeatherDisplay:10.37,2013-04-30 07:33:00,
2013-04-30 00:38:00,54.4,49.0,29.71,SSW,205,1.0,3.5,82,0.00,CLR,,0.00,WeatherDisplay:10.37,2013-04-30 07:38:00,
2013-04-30 00:43:00,54.4,49.3,29.71,SW,214,0.1,2.3,83,0.00,CLR,,0.00,WeatherDisplay:10.37,2013-04-30 07:43:00,
2013-04-30 00:48:00,54.2,49.1,29.71,SW,214,0.5,2.3,83,0.00,CLR,,0.00,WeatherDisplay:10.37,2013-04-30 07:48:00,
2013-04-30 00:53:00,54.2,49.1,29.71,SW,214,0.4,3.5,83,0.00,CLR,,0.00,WeatherDisplay:10.37,2013-04-30 07:53:00,
2013-04-30 00:58:00,54.2,49.1,29.71,SW,215,0.7,3.0,83,0.00,CLR,,0.00,WeatherDisplay:10.37,2013-04-30 07:58:00,
2013-04-30 01:03:00,54.1,49.4,29.71,SSW,207,0.1,1.2,84,0.00,CLR,,0.00,WeatherDisplay:10.37,2013-04-30 08:03:00,
2013-04-30 01:08:00,54.1,49.4,29.71,SW,217,1.7,4.0,84,0.00,CLR,,0.00,WeatherDisplay:10.37,2013-04-30 08:08:00,
2013-04-30 01:13:00,53.9,49.2,29.71,SW,223,1.7,5.0,84,0.00,CLR,,0.00,WeatherDisplay:10.37,2013-04-30 08:13:00,
2013-04-30 01:18:00,53.9,49.2,29.71,SSW,198,0.7,4.0,84,0.00,CLR,,0.00,WeatherDisplay:10.37,2013-04-30 08:18:00,
2013-04-30 01:23:00,53.8,49.4,29.70,SSW,211,1.5,4.0,85,0.00,CLR,,0.00,WeatherDisplay:10.37,2013-04-30 08:23:00,
2013-04-30 01:28:00,53.8,49.4,29.70,SSW,212,0.7,4.0,85,0.00,CLR,,0.00,WeatherDisplay:10.37,2013-04-30 08:28:00,
2013-04-30 01:33:00,53.6,49.2,29.70,SW,214,0.9,4.0,85,0.00,CLR,,0.00,WeatherDisplay:10.37,2013-04-30 08:33:00,
2013-04-30 01:38:00,53.6,49.2,29.70,SW,214,0.0,1.2,85,0.00,CLR,,0.00,WeatherDisplay:10.37,2013-04-30 08:38:00,
2013-04-30 01:43:00,53.5,49.1,29.70,SW,214,0.3,3.5,85,0.00,CLR,,0.00,WeatherDisplay:10.37,2013-04-30 08:43:00,
2013-04-30 01:48:00,53.5,49.4,29.70,SW,215,0.6,3.0,86,0.00,CLR,,0.00,WeatherDisplay:10.37,2013-04-30 08:48:00,
2013-04-30 01:53:00,53.5,49.4,29.70,SW,215,0.0,1.0,86,0.00,CLR,,0.00,WeatherDisplay:10.37,2013-04-30 08:53:00,
2013-04-30 01:58:00,53.3,49.2,29.70,SW,216,0.0,0.0,86,0.00,CLR,,0.00,WeatherDisplay:10.37,2013-04-30 08:58:00,
2013-04-30 02:03:00,53.3,49.2,29.70,SW,216,0.0,0.0,86,0.00,CLR,,0.00,WeatherDisplay:10.37,2013-04-30 09:03:00,
2013-04-30 02:08:00,53.3,49.2,29.70,SW,214,0.4,2.3,86,0.00,CLR,,0.00,WeatherDisplay:10.37,2013-04-30 09:08:00,
2013-04-30 02:13:00,53.3,49.2,29.70,SW,214,0.0,0.0,86,0.00,CLR,,0.00,WeatherDisplay:10.37,2013-04-30 09:13:00,
2013-04-30 02:18:00,53.3,49.2,29.70,SW,214,0.8,2.3,86,0.00,CLR,,0.00,WeatherDisplay:10.37,2013-04-30 09:18:00,
2013-04-30 02:23:00,53.3,49.2,29.70,SSW,211,0.0,0.0,86,0.00,CLR,,0.00,WeatherDisplay:10.37,2013-04-30 09:23:00,
2013-04-30 02:28:00,53.3,49.5,29.70,SSW,211,0.0,1.2,87,0.00,CLR,,0.00,WeatherDisplay:10.37,2013-04-30 09:28:00,
2013-04-30 02:33:00,53.3,49.5,29.70,SSW,211,0.0,0.0,87,0.00,CLR,,0.00,WeatherDisplay:10.37,2013-04-30 09:33:00,
2013-04-30 02:38:00,53.3,49.5,29.69,SSW,212,0.2,1.2,87,0.00,CLR,,0.00,WeatherDisplay:10.37,2013-04-30 09:38:00,
2013-04-30 02:43:00,53.2,49.4,29.69,SSW,212,0.2,2.3,87,0.00,CLR,,0.00,WeatherDisplay:10.37,2013-04-30 09:43:00,
2013-04-30 02:48:00,53.2,49.4,29.69,SSW,212,0.8,3.0,87,0.00,CLR,,0.00,WeatherDisplay:10.37,2013-04-30 09:48:00,
2013-04-30 02:53:00,53.2,49.4,29.69,SSW,210,0.5,3.0,87,0.00,CLR,,0.00,WeatherDisplay:10.37,2013-04-30 09:53:00,
2013-04-30 02:58:00,53.1,49.3,29.69,SSW,210,0.1,1.0,87,0.00,CLR,,0.00,WeatherDisplay:10.37,2013-04-30 09:58:00,
2013-04-30 03:03:00,53.2,49.4,29.69,SSW,210,1.1,4.0,87,0.00,CLR,,0.00,WeatherDisplay:10.37,2013-04-30 10:03:00,
2013-04-30 03:08:00,53.2,49.7,29.69,SSW,204,0.5,3.0,88,0.00,CLR,,0.00,WeatherDisplay:10.37,2013-04-30 10:08:00,
2013-04-30 03:13:00,53.2,49.4,29.69,SSW,204,0.0,0.0,87,0.00,CLR,,0.00,WeatherDisplay:10.37,2013-04-30 10:13:00,
2013-04-30 03:18:00,53.2,49.7,29.69,SSW,204,1.1,3.0,88,0.00,CLR,,0.00,WeatherDisplay:10.37,2013-04-30 10:18:00,
2013-04-30 03:23:00,53.2,49.7,29.69,SSW,203,0.4,2.0,88,0.00,CLR,,0.00,WeatherDisplay:10.37,2013-04-30 10:23:00,
2013-04-30 03:28:00,53.2,49.7,29.69,SSW,203,0.2,3.0,88,0.00,CLR,,0.00,WeatherDisplay:10.37,2013-04-30 10:28:00,
2013-04-30 03:33:00,53.2,49.7,29.69,SSW,205,0.3,2.3,88,0.00,CLR,,0.00,WeatherDisplay:10.37,2013-04-30 10:33:00,
2013-04-30 03:38:00,53.1,49.6,29.69,SSW,208,1.0,3.0,88,0.00,CLR,,0.00,WeatherDisplay:10.37,2013-04-30 10:38:00,
2013-04-30 03:43:00,53.2,49.7,29.69,SSW,208,0.0,0.0,88,0.00,CLR,,0.00,WeatherDisplay:10.37,2013-04-30 10:43:00,
2013-04-30 03:48:00,53.3,49.8,29.69,SSW,209,0.3,1.2,88,0.00,CLR,,0.00,WeatherDisplay:10.37,2013-04-30 10:48:00,
2013-04-30 03:53:00,53.5,50.0,29.69,SSW,208,0.0,0.0,88,0.00,CLR,,0.00,WeatherDisplay:10.37,2013-04-30 10:53:00,
2013-04-30 03:58:00,53.5,50.0,29.69,SSW,208,0.0,0.0,88,0.00,CLR,,0.00,WeatherDisplay:10.37,2013-04-30 10:58:00,
2013-04-30 04:03:00,53.5,50.0,29.69,SSW,208,0.0,2.3,88,0.00,CLR,,0.00,WeatherDisplay:10.37,2013-04-30 11:03:00,
2013-04-30 04:08:00,53.6,50.1,29.70,SSW,208,0.1,1.0,88,0.00,CLR,,0.00,WeatherDisplay:10.37,2013-04-30 11:08:00,
2013-04-30 04:13:00,53.6,50.1,29.70,SSW,209,0.0,0.0,88,0.00,CLR,,0.00,WeatherDisplay:10.37,2013-04-30 11:13:00,
2013-04-30 04:18:00,53.8,50.3,29.70,SSW,209,0.7,2.3,88,0.00,CLR,,0.00,WeatherDisplay:10.37,2013-04-30 11:18:00,
2013-04-30 04:23:00,53.8,50.0,29.70,SSW,212,1.4,3.5,87,0.00,CLR,,0.00,WeatherDisplay:10.37,2013-04-30 11:23:00,
2013-04-30 04:28:00,53.9,50.1,29.70,SSW,212,0.0,1.2,87,0.00,CLR,,0.00,WeatherDisplay:10.37,2013-04-30 11:28:00,
2013-04-30 04:33:00,53.9,50.1,29.70,SW,229,0.0,2.3,87,0.00,CLR,,0.00,WeatherDisplay:10.37,2013-04-30 11:33:00,
2013-04-30 04:38:00,53.8,50.0,29.70,SW,230,0.4,2.3,87,0.00,CLR,,0.00,WeatherDisplay:10.37,2013-04-30 11:38:00,
2013-04-30 04:43:00,53.8,49.7,29.70,SW,229,0.0,0.0,86,0.00,CLR,,0.00,WeatherDisplay:10.37,2013-04-30 11:43:00,
2013-04-30 04:48:00,53.6,49.5,29.70,SW,229,0.0,0.0,86,0.00,CLR,,0.00,WeatherDisplay:10.37,2013-04-30 11:48:00,
2013-04-30 04:53:00,53.6,49.5,29.70,SW,229,0.0,0.0,86,0.00,CLR,,0.00,WeatherDisplay:10.37,2013-04-30 11:53:00,
2013-04-30 04:58:00,53.6,49.5,29.70,SW,230,0.0,0.0,86,0.00,CLR,,0.00,WeatherDisplay:10.37,2013-04-30 11:58:00,
2013-04-30 05:03:00,53.6,49.5,29.70,SW,230,0.6,2.3,86,0.00,CLR,,0.00,WeatherDisplay:10.37,2013-04-30 12:03:00,
2013-04-30 05:08:00,53.5,49.4,29.70,SW,233,1.3,3.5,86,0.00,CLR,,0.00,WeatherDisplay:10.37,2013-04-30 12:08:00,
2013-04-30 05:13:00,53.3,49.2,29.71,SW,233,1.0,3.0,86,0.00,CLR,,0.00,WeatherDisplay:10.37,2013-04-30 12:13:00,
2013-04-30 05:18:00,53.3,49.2,29.71,SW,234,0.0,1.2,86,0.00,CLR,,0.00,WeatherDisplay:10.37,2013-04-30 12:18:00,
2013-04-30 05:23:00,53.3,49.2,29.71,SW,234,0.0,0.0,86,0.00,CLR,,0.00,WeatherDisplay:10.37,2013-04-30 12:23:00,
2013-04-30 05:28:00,53.5,49.4,29.70,SW,234,0.0,1.2,86,0.00,CLR,,0.00,WeatherDisplay:10.37,2013-04-30 12:28:00,
2013-04-30 05:33:00,53.5,49.4,29.70,SW,234,0.0,0.0,86,0.00,CLR,,0.00,WeatherDisplay:10.37,2013-04-30 12:33:00,
2013-04-30 05:38:00,53.5,49.4,29.70,SW,234,0.0,0.0,86,0.00,CLR,,0.00,WeatherDisplay:10.37,2013-04-30 12:38:00,
2013-04-30 05:43:00,53.5,49.4,29.70,SW,234,0.0,3.5,86,0.00,CLR,,0.00,WeatherDisplay:10.37,2013-04-30 12:43:00,
2013-04-30 05:48:00,53.3,49.2,29.71,SW,234,0.0,0.0,86,0.00,CLR,,0.00,WeatherDisplay:10.37,2013-04-30 12:48:00,
2013-04-30 05:53:00,53.3,49.2,29.71,SW,234,0.0,0.0,86,0.00,CLR,,0.00,WeatherDisplay:10.37,2013-04-30 12:53:00,
2013-04-30 05:58:00,53.3,49.2,29.71,SW,234,0.0,0.0,86,0.00,CLR,,0.00,WeatherDisplay:10.37,2013-04-30 12:58:00,
2013-04-30 06:03:00,53.3,49.2,29.71,SW,234,0.0,0.0,86,0.00,CLR,,0.00,WeatherDisplay:10.37,2013-04-30 13:03:00,
2013-04-30 06:08:00,53.3,49.2,29.72,SW,234,0.0,0.0,86,0.00,CLR,,0.00,WeatherDisplay:10.37,2013-04-30 13:08:00,
2013-04-30 06:13:00,53.3,49.2,29.72,SW,234,0.0,0.0,86,0.00,CLR,,0.00,WeatherDisplay:10.37,2013-04-30 13:13:00,
2013-04-30 06:18:00,53.2,49.1,29.72,SW,234,0.0,0.0,86,0.00,CLR,,0.00,WeatherDisplay:10.37,2013-04-30 13:18:00,
2013-04-30 06:23:00,53.3,49.5,29.72,SW,234,0.0,0.0,87,0.00,CLR,,0.00,WeatherDisplay:10.37,2013-04-30 13:23:00,
2013-04-30 06:28:00,53.3,49.5,29.72,SW,234,0.0,0.0,87,0.00,CLR,,0.00,WeatherDisplay:10.37,2013-04-30 13:28:00,
2013-04-30 06:33:00,53.3,49.5,29.72,SW,234,0.0,0.0,87,0.00,CLR,,0.00,WeatherDisplay:10.37,2013-04-30 13:33:00,
2013-04-30 06:38:00,53.3,49.5,29.72,SW,234,0.0,0.0,87,0.00,CLR,,0.00,WeatherDisplay:10.37,2013-04-30 13:38:00,
2013-04-30 06:43:00,53.3,49.5,29.72,SW,234,0.0,0.0,87,0.00,CLR,,0.00,WeatherDisplay:10.37,2013-04-30 13:43:00,
2013-04-30 06:48:00,53.3,49.5,29.72,SW,234,0.0,0.0,87,0.00,CLR,,0.00,WeatherDisplay:10.37,2013-04-30 13:48:00,
2013-04-30 06:53:00,53.2,49.4,29.72,SW,234,0.0,0.0,87,0.00,CLR,,0.00,WeatherDisplay:10.37,2013-04-30 13:53:00,
2013-04-30 06:58:00,53.3,49.5,29.72,SW,234,0.0,0.0,87,0.00,CLR,,0.00,WeatherDisplay:10.37,2013-04-30 13:58:00,
2013-04-30 07:03:00,53.3,49.5,29.72,SW,234,0.0,0.0,87,0.00,CLR,,0.00,WeatherDisplay:10.37,2013-04-30 14:03:00,
2013-04-30 07:08:00,53.2,49.4,29.73,SW,234,0.0,0.0,87,0.00,CLR,,0.00,WeatherDisplay:10.37,2013-04-30 14:08:00,
2013-04-30 07:13:00,53.3,49.2,29.73,SW,234,0.0,0.0,86,0.00,CLR,,0.00,WeatherDisplay:10.37,2013-04-30 14:13:00,
2013-04-30 07:18:00,53.3,49.2,29.73,SW,234,0.0,0.0,86,0.00,CLR,,0.00,WeatherDisplay:10.37,2013-04-30 14:18:00,
2013-04-30 07:23:00,53.5,49.7,29.72,SW,234,0.0,0.0,87,0.00,CLR,,0.00,WeatherDisplay:10.37,2013-04-30 14:23:00,
2013-04-30 07:28:00,53.6,49.5,29.73,SW,234,0.0,0.0,86,0.00,CLR,,0.00,WeatherDisplay:10.37,2013-04-30 14:28:00,
2013-04-30 07:33:00,53.8,49.7,29.73,SW,234,0.5,2.3,86,0.00,CLR,,0.00,WeatherDisplay:10.37,2013-04-30 14:33:00,
2013-04-30 07:38:00,53.9,49.8,29.73,SW,234,0.3,2.3,86,0.00,CLR,,0.00,WeatherDisplay:10.37,2013-04-30 14:38:00,
2013-04-30 07:43:00,53.9,49.8,29.73,SW,234,0.0,1.2,86,0.00,CLR,,0.00,WeatherDisplay:10.37,2013-04-30 14:43:00,
2013-04-30 07:48:00,53.9,49.8,29.73,SW,234,0.0,0.0,86,0.00,CLR,,0.00,WeatherDisplay:10.37,2013-04-30 14:48:00,
2013-04-30 07:53:00,54.1,50.0,29.73,SW,234,0.1,2.0,86,0.00,CLR,,0.00,WeatherDisplay:10.37,2013-04-30 14:53:00,
2013-04-30 07:58:00,54.1,49.7,29.74,SW,234,0.0,1.2,85,0.00,CLR,,0.00,WeatherDisplay:10.37,2013-04-30 14:58:00,
2013-04-30 08:03:00,54.2,50.1,29.74,SW,234,0.0,0.0,86,0.00,CLR,,0.00,WeatherDisplay:10.37,2013-04-30 15:03:00,
2013-04-30 08:08:00,54.2,49.8,29.74,SW,234,0.4,3.0,85,0.00,CLR,,0.00,WeatherDisplay:10.37,2013-04-30 15:08:00,
2013-04-30 08:13:00,54.4,50.0,29.75,SW,235,1.0,3.5,85,0.00,CLR,,0.00,WeatherDisplay:10.37,2013-04-30 15:13:00,
2013-04-30 08:18:00,54.4,50.0,29.75,SW,235,0.2,3.5,85,0.00,CLR,,0.00,WeatherDisplay:10.37,2013-04-30 15:18:00,
2013-04-30 08:23:00,54.4,50.0,29.75,SW,235,0.0,0.0,85,0.00,CLR,,0.00,WeatherDisplay:10.37,2013-04-30 15:23:00,
2013-04-30 08:28:00,54.4,50.0,29.75,SW,235,0.0,0.0,85,0.00,CLR,,0.00,WeatherDisplay:10.37,2013-04-30 15:28:00,
2013-04-30 08:33:00,54.5,50.1,29.75,SW,235,0.3,2.3,85,0.00,CLR,,0.00,WeatherDisplay:10.37,2013-04-30 15:33:00,
2013-04-30 08:38:00,54.5,50.1,29.75,SW,235,0.0,0.0,85,0.00,CLR,,0.00,WeatherDisplay:10.37,2013-04-30 15:38:00,
2013-04-30 08:43:00,54.5,49.8,29.75,SW,235,0.0,0.0,84,0.00,CLR,,0.00,WeatherDisplay:10.37,2013-04-30 15:43:00,
2013-04-30 08:48:00,54.5,49.8,29.75,SW,235,0.0,0.0,84,0.00,CLR,,0.00,WeatherDisplay:10.37,2013-04-30 15:48:00,
2013-04-30 08:53:00,54.7,50.0,29.75,SW,235,0.0,0.0,84,0.00,CLR,,0.00,WeatherDisplay:10.37,2013-04-30 15:53:00,
2013-04-30 08:58:00,55.0,49.9,29.75,SW,235,0.1,1.2,83,0.00,CLR,,0.00,WeatherDisplay:10.37,2013-04-30 15:58:00,
2013-04-30 09:03:00,55.3,50.2,29.75,SW,235,0.1,2.3,83,0.00,CLR,,0.00,WeatherDisplay:10.37,2013-04-30 16:03:00,
2013-04-30 09:08:00,55.4,50.0,29.75,SW,235,0.0,0.0,82,0.00,CLR,,0.00,WeatherDisplay:10.37,2013-04-30 16:08:00,
2013-04-30 09:13:00,55.4,49.7,29.75,SW,235,0.0,0.0,81,0.00,CLR,,0.00,WeatherDisplay:10.37,2013-04-30 16:13:00,
2013-04-30 09:18:00,55.7,50.3,29.75,SW,235,0.1,1.2,82,0.00,CLR,,0.00,WeatherDisplay:10.37,2013-04-30 16:18:00,
2013-04-30 09:23:00,55.7,50.0,29.75,SW,235,0.0,0.0,81,0.00,CLR,,0.00,WeatherDisplay:10.37,2013-04-30 16:23:00,
2013-04-30 09:28:00,56.2,50.4,29.75,SW,235,0.0,0.0,81,0.00,CLR,,0.00,WeatherDisplay:10.37,2013-04-30 16:28:00,
2013-04-30 09:33:00,56.5,50.7,29.75,SW,235,0.1,1.2,81,0.00,CLR,,0.00,WeatherDisplay:10.37,2013-04-30 16:33:00,
2013-04-30 09:38:00,56.6,50.8,29.75,SW,235,0.6,3.0,81,0.00,CLR,,0.00,WeatherDisplay:10.37,2013-04-30 16:38:00,
2013-04-30 09:43:00,56.6,50.5,29.75,SW,235,0.5,3.5,80,0.00,CLR,,0.00,WeatherDisplay:10.37,2013-04-30 16:43:00,
2013-04-30 09:48:00,56.9,50.8,29.75,SW,235,0.6,2.3,80,0.00,CLR,,0.00,WeatherDisplay:10.37,2013-04-30 16:48:00,
2013-04-30 09:53:00,57.2,51.1,29.76,SW,235,1.7,4.0,80,0.00,CLR,,0.00,WeatherDisplay:10.37,2013-04-30 16:53:00,
2013-04-30 09:58:00,57.2,50.4,29.76,SW,236,0.1,1.2,78,0.00,CLR,,0.00,WeatherDisplay:10.37,2013-04-30 16:58:00,
2013-04-30 10:03:00,57.5,51.0,29.76,SW,236,0.0,1.0,79,0.00,CLR,,0.00,WeatherDisplay:10.37,2013-04-30 17:03:00,
2013-04-30 10:08:00,57.6,50.8,29.77,SW,236,0.2,1.2,78,0.00,CLR,,0.00,WeatherDisplay:10.37,2013-04-30 17:08:00,
2013-04-30 10:13:00,58.0,51.2,29.77,SW,236,0.1,2.3,78,0.00,CLR,,0.00,WeatherDisplay:10.37,2013-04-30 17:13:00,
2013-04-30 10:18:00,58.1,50.9,29.77,SW,236,0.0,0.0,77,0.00,CLR,,0.00,WeatherDisplay:10.37,2013-04-30 17:18:00,
2013-04-30 10:23:00,58.3,50.8,29.76,SW,236,0.0,0.0,76,0.00,CLR,,0.00,WeatherDisplay:10.37,2013-04-30 17:23:00,
2013-04-30 10:28:00,58.6,51.4,29.76,SSW,211,1.2,4.0,77,0.00,CLR,,0.00,WeatherDisplay:10.37,2013-04-30 17:28:00,
2013-04-30 10:33:00,59.2,52.0,29.76,SSW,207,0.4,2.3,77,0.00,CLR,,0.00,WeatherDisplay:10.37,2013-04-30 17:33:00,
2013-04-30 10:38:00,60.4,51.7,29.75,SSW,210,0.4,1.2,73,0.00,CLR,,0.00,WeatherDisplay:10.37,2013-04-30 17:38:00,
2013-04-30 10:43:00,61.6,51.3,29.76,SW,215,0.9,3.0,69,0.00,CLR,,0.00,WeatherDisplay:10.37,2013-04-30 17:43:00,
2013-04-30 10:48:00,62.1,51.4,29.76,NW,319,2.9,5.0,68,0.00,CLR,,0.00,WeatherDisplay:10.37,2013-04-30 17:48:00,
2013-04-30 10:53:00,61.8,51.5,29.76,NW,304,0.6,3.5,69,0.00,CLR,,0.00,WeatherDisplay:10.37,2013-04-30 17:53:00,
2013-04-30 10:58:00,62.0,52.1,29.76,NW,318,0.6,3.5,70,0.00,CLR,,0.00,WeatherDisplay:10.37,2013-04-30 17:58:00,
2013-04-30 11:03:00,62.4,52.5,29.76,NW,318,0.0,1.2,70,0.00,CLR,,0.00,WeatherDisplay:10.37,2013-04-30 18:03:00,
2013-04-30 11:08:00,63.4,51.4,29.76,NW,316,2.0,4.0,65,0.00,CLR,,0.00,WeatherDisplay:10.37,2013-04-30 18:08:00,
2013-04-30 11:13:00,63.7,52.1,29.75,NW,317,0.1,3.5,66,0.00,CLR,,0.00,WeatherDisplay:10.37,2013-04-30 18:13:00,
2013-04-30 11:18:00,64.7,53.1,29.75,NW,316,0.5,2.3,66,0.00,CLR,,0.00,WeatherDisplay:10.37,2013-04-30 18:18:00,
2013-04-30 11:23:00,65.5,50.8,29.74,SSW,213,1.1,4.0,59,0.00,CLR,,0.00,WeatherDisplay:10.37,2013-04-30 18:23:00,
2013-04-30 11:28:00,66.4,50.7,29.74,NW,314,0.0,0.0,57,0.00,CLR,,0.00,WeatherDisplay:10.37,2013-04-30 18:28:00,
2013-04-30 11:33:00,67.3,53.4,29.74,NW,314,0.9,3.0,61,0.00,CLR,,0.00,WeatherDisplay:10.37,2013-04-30 18:33:00,
2013-04-30 11:38:00,68.3,52.5,29.74,NW,304,0.5,3.5,57,0.00,CLR,,0.00,WeatherDisplay:10.37,2013-04-30 18:38:00,
2013-04-30 11:43:00,68.4,51.1,29.74,NW,315,0.3,2.3,54,0.00,CLR,,0.00,WeatherDisplay:10.37,2013-04-30 18:43:00,
2013-04-30 11:48:00,68.6,50.8,29.74,WNW,291,0.3,1.2,53,0.00,CLR,,0.00,WeatherDisplay:10.37,2013-04-30 18:48:00,
2013-04-30 11:53:00,68.9,51.1,29.74,WNW,290,0.1,1.2,53,0.00,CLR,,0.00,WeatherDisplay:10.37,2013-04-30 18:53:00,
2013-04-30 11:58:00,69.3,50.9,29.73,WNW,295,1.2,3.5,52,0.00,CLR,,0.00,WeatherDisplay:10.37,2013-04-30 18:58:00,
2013-04-30 12:03:00,69.4,49.9,29.73,SW,216,0.1,3.5,50,0.00,CLR,,0.00,WeatherDisplay:10.37,2013-04-30 19:03:00,
2013-04-30 12:08:00,69.6,50.7,29.73,NNW,339,3.2,5.0,51,0.00,CLR,,0.00,WeatherDisplay:10.37,2013-04-30 19:08:00,
2013-04-30 12:13:00,69.9,52.0,29.73,NW,324,0.0,0.0,53,0.00,CLR,,0.00,WeatherDisplay:10.37,2013-04-30 19:13:00,
2013-04-30 12:18:00,70.8,50.7,29.73,NW,313,1.7,5.0,49,0.00,CLR,,0.00,WeatherDisplay:10.37,2013-04-30 19:18:00,
2013-04-30 12:23:00,71.5,51.3,29.73,NW,316,2.5,6.0,49,0.00,CLR,,0.00,WeatherDisplay:10.37,2013-04-30 19:23:00,
2013-04-30 12:28:00,72.3,48.5,29.72,SSW,211,1.6,5.0,43,0.00,CLR,,0.00,WeatherDisplay:10.37,2013-04-30 19:28:00,
2013-04-30 12:33:00,72.8,47.7,29.72,SW,233,2.1,4.0,41,0.00,CLR,,0.00,WeatherDisplay:10.37,2013-04-30 19:33:00,
2013-04-30 12:38:00,73.3,48.2,29.72,WSW,237,0.6,3.5,41,0.00,CLR,,0.00,WeatherDisplay:10.37,2013-04-30 19:38:00,
2013-04-30 12:43:00,73.9,48.7,29.72,West,261,0.2,2.3,41,0.00,CLR,,0.00,WeatherDisplay:10.37,2013-04-30 19:43:00,
2013-04-30 12:48:00,74.6,51.9,29.72,SW,224,1.6,4.0,45,0.00,CLR,,0.00,WeatherDisplay:10.37,2013-04-30 19:48:00,
2013-04-30 12:53:00,73.9,49.4,29.72,SSW,211,3.6,6.0,42,0.00,CLR,,0.00,WeatherDisplay:10.37,2013-04-30 19:53:00,
2013-04-30 12:58:00,74.0,48.8,29.72,SW,230,0.7,2.3,41,0.00,CLR,,0.00,WeatherDisplay:10.37,2013-04-30 19:58:00,
2013-04-30 13:04:00,74.2,47.6,29.72,NW,310,1.5,4.6,39,0.00,CLR,,0.00,WeatherDisplay:10.37,2013-04-30 20:04:00,
2013-04-30 13:09:00,74.6,49.3,29.72,West,262,2.8,5.0,41,0.00,CLR,,0.00,WeatherDisplay:10.37,2013-04-30 20:09:00,
2013-04-30 13:14:00,75.1,47.0,29.72,WSW,238,0.4,2.3,37,0.00,CLR,,0.00,WeatherDisplay:10.37,2013-04-30 20:14:00,
2013-04-30 13:19:00,75.6,50.9,29.72,SW,233,0.2,2.3,42,0.00,CLR,,0.00,WeatherDisplay:10.37,2013-04-30 20:19:00,
2013-04-30 13:24:00,76.0,49.9,29.72,SW,226,1.1,4.0,40,0.00,CLR,,0.00,WeatherDisplay:10.37,2013-04-30 20:24:00,
2013-04-30 13:29:00,75.8,48.4,29.72,West,268,2.7,7.0,38,0.00,CLR,,0.00,WeatherDisplay:10.37,2013-04-30 20:29:00,
2013-04-30 13:34:00,76.3,48.8,29.72,WNW,284,2.8,5.8,38,0.00,CLR,,0.00,WeatherDisplay:10.37,2013-04-30 20:34:00,
2013-04-30 13:39:00,76.1,47.2,29.72,SSW,205,1.0,10.4,36,0.00,CLR,,0.00,WeatherDisplay:10.37,2013-04-30 20:39:00,
2013-04-30 13:44:00,75.8,51.1,29.72,SSW,198,3.9,10.4,42,0.00,CLR,,0.00,WeatherDisplay:10.37,2013-04-30 20:44:00,
2013-04-30 13:49:00,75.8,49.1,29.72,West,264,1.7,7.0,39,0.00,CLR,,0.00,WeatherDisplay:10.37,2013-04-30 20:49:00,
2013-04-30 13:54:00,76.1,50.0,29.72,SW,227,1.5,4.6,40,0.00,CLR,,0.00,WeatherDisplay:10.37,2013-04-30 20:54:00,
2013-04-30 13:59:00,76.3,48.8,29.72,SW,224,1.9,8.1,38,0.00,CLR,,0.00,WeatherDisplay:10.37,2013-04-30 20:59:00,
2013-04-30 14:04:00,76.7,49.2,29.72,SW,215,0.4,3.5,38,0.00,CLR,,0.00,WeatherDisplay:10.37,2013-04-30 21:04:00,
2013-04-30 14:09:00,77.2,49.6,29.72,SW,231,1.9,5.0,38,0.00,CLR,,0.00,WeatherDisplay:10.37,2013-04-30 21:09:00,
2013-04-30 14:14:00,76.5,49.0,29.72,WNW,285,2.4,9.2,38,0.00,CLR,,0.00,WeatherDisplay:10.37,2013-04-30 21:14:00,
2013-04-30 14:19:00,76.8,50.0,29.72,WNW,300,1.1,3.5,39,0.00,CLR,,0.00,WeatherDisplay:10.37,2013-04-30 21:19:00,
2013-04-30 14:24:00,76.5,48.3,29.72,WNW,290,1.9,6.9,37,0.00,CLR,,0.00,WeatherDisplay:10.37,2013-04-30 21:24:00,
2013-04-30 14:29:00,76.8,47.1,29.72,WSW,243,3.6,10.4,35,0.00,CLR,,0.00,WeatherDisplay:10.37,2013-04-30 21:29:00,
2013-04-30 14:34:00,77.2,47.4,29.72,West,280,3.4,8.1,35,0.00,CLR,,0.00,WeatherDisplay:10.37,2013-04-30 21:34:00,
2013-04-30 14:39:00,77.0,49.4,29.72,SSW,207,0.4,2.3,38,0.00,CLR,,0.00,WeatherDisplay:10.37,2013-04-30 21:39:00,
2013-04-30 14:44:00,77.2,48.9,29.71,WSW,246,1.1,6.9,37,0.00,CLR,,0.00,WeatherDisplay:10.37,2013-04-30 21:44:00,
2013-04-30 14:49:00,77.4,49.1,29.71,SE,130,2.6,6.0,37,0.00,CLR,,0.00,WeatherDisplay:10.37,2013-04-30 21:49:00,
2013-04-30 14:54:00,77.7,48.6,29.71,SSW,210,2.1,4.0,36,0.00,CLR,,0.00,WeatherDisplay:10.37,2013-04-30 21:54:00,
2013-04-30 14:59:00,77.7,48.6,29.71,WSW,243,3.2,7.0,36,0.00,CLR,,0.00,WeatherDisplay:10.37,2013-04-30 21:59:00,
2013-04-30 15:04:00,78.1,48.2,29.70,SSE,148,1.1,2.3,35,0.00,CLR,,0.00,WeatherDisplay:10.37,2013-04-30 22:04:00,
2013-04-30 15:09:00,77.7,47.9,29.70,WSW,238,2.5,7.0,35,0.00,CLR,,0.00,WeatherDisplay:10.37,2013-04-30 22:09:00,
2013-04-30 15:14:00,78.1,49.0,29.69,WSW,243,1.2,3.5,36,0.00,CLR,,0.00,WeatherDisplay:10.37,2013-04-30 22:14:00,
2013-04-30 15:19:00,78.5,51.5,29.69,SSW,211,0.9,4.0,39,0.00,CLR,,0.00,WeatherDisplay:10.37,2013-04-30 22:19:00,
2013-04-30 15:24:00,78.5,49.3,29.69,WNW,292,0.8,4.0,36,0.00,CLR,,0.00,WeatherDisplay:10.37,2013-04-30 22:24:00,
2013-04-30 15:29:00,78.5,51.5,29.69,West,271,1.2,4.0,39,0.00,CLR,,0.00,WeatherDisplay:10.37,2013-04-30 22:29:00,
2013-04-30 15:34:00,78.8,47.3,29.69,South,186,0.7,4.6,33,0.00,CLR,,0.00,WeatherDisplay:10.37,2013-04-30 22:34:00,
2013-04-30 15:39:00,78.8,48.8,29.68,SW,229,2.3,5.0,35,0.00,CLR,,0.00,WeatherDisplay:10.37,2013-04-30 22:39:00,
2013-04-30 15:44:00,78.8,47.3,29.68,SE,131,0.2,1.2,33,0.00,CLR,,0.00,WeatherDisplay:10.37,2013-04-30 22:44:00,
2013-04-30 15:49:00,78.8,48.8,29.68,SSW,199,2.5,6.0,35,0.00,CLR,,0.00,WeatherDisplay:10.37,2013-04-30 22:49:00,
2013-04-30 15:54:00,78.1,47.4,29.68,SSW,211,7.8,11.5,34,0.00,CLR,,0.00,WeatherDisplay:10.37,2013-04-30 22:54:00,
2013-04-30 15:59:00,78.1,48.2,29.68,WSW,238,1.6,5.8,35,0.00,CLR,,0.00,WeatherDisplay:10.37,2013-04-30 22:59:00,
2013-04-30 16:04:00,78.3,49.1,29.68,SSW,192,3.7,6.0,36,0.00,CLR,,0.00,WeatherDisplay:10.37,2013-04-30 23:04:00,
2013-04-30 16:09:00,78.1,48.2,29.68,SSW,195,0.4,5.8,35,0.00,CLR,,0.00,WeatherDisplay:10.37,2013-04-30 23:09:00,
2013-04-30 16:14:00,78.5,49.3,29.67,WNW,291,1.4,4.6,36,0.00,CLR,,0.00,WeatherDisplay:10.37,2013-04-30 23:14:00,
2013-04-30 16:19:00,79.0,50.5,29.67,ESE,118,0.3,4.6,37,0.00,CLR,,0.00,WeatherDisplay:10.37,2013-04-30 23:19:00,
2013-04-30 16:24:00,79.4,50.1,29.67,SSW,197,3.0,6.0,36,0.00,CLR,,0.00,WeatherDisplay:10.37,2013-04-30 23:24:00,
2013-04-30 16:29:00,78.8,49.6,29.67,SSW,212,3.3,5.0,36,0.00,CLR,,0.00,WeatherDisplay:10.37,2013-04-30 23:29:00,
2013-04-30 16:34:00,78.1,50.4,29.67,West,279,1.6,4.0,38,0.00,CLR,,0.00,WeatherDisplay:10.37,2013-04-30 23:34:00,
2013-04-30 16:39:00,77.6,50.0,29.67,SSW,199,0.8,9.0,38,0.00,CLR,,0.00,WeatherDisplay:10.37,2013-04-30 23:39:00,
2013-04-30 16:44:00,76.5,47.6,29.68,SW,215,4.0,7.0,36,0.00,CLR,,0.00,WeatherDisplay:10.37,2013-04-30 23:44:00,
2013-04-30 16:49:00,76.1,48.6,29.68,SSW,207,7.6,12.0,38,0.00,CLR,,0.00,WeatherDisplay:10.37,2013-04-30 23:49:00,
2013-04-30 16:54:00,75.4,48.7,29.68,West,262,0.7,3.5,39,0.00,CLR,,0.00,WeatherDisplay:10.37,2013-04-30 23:54:00,
2013-04-30 16:59:00,75.3,49.3,29.68,SSW,204,3.8,7.0,40,0.00,CLR,,0.00,WeatherDisplay:10.37,2013-04-30 23:59:00,
2013-04-30 17:04:00,75.4,49.4,29.68,SW,217,5.9,11.5,40,0.00,CLR,,0.00,WeatherDisplay:10.37,2013-05-01 00:04:00,
2013-04-30 17:09:00,75.3,50.0,29.68,SW,235,5.6,12.0,41,0.00,CLR,,0.00,WeatherDisplay:10.37,2013-05-01 00:09:00,
2013-04-30 17:14:00,75.1,49.8,29.68,West,278,1.8,3.5,41,0.00,CLR,,0.00,WeatherDisplay:10.37,2013-05-01 00:14:00,
2013-04-30 17:19:00,75.1,51.1,29.68,WNW,292,4.2,6.0,43,0.00,CLR,,0.00,WeatherDisplay:10.37,2013-05-01 00:19:00,
2013-04-30 17:24:00,74.7,50.1,29.68,SW,217,3.3,6.0,42,0.00,CLR,,0.00,WeatherDisplay:10.37,2013-05-01 00:24:00,
2013-04-30 17:29:00,74.2,50.3,29.69,West,276,2.9,10.4,43,0.00,CLR,,0.00,WeatherDisplay:10.37,2013-05-01 00:29:00,
2013-04-30 17:34:00,73.7,50.4,29.69,South,181,3.6,7.0,44,0.00,CLR,,0.00,WeatherDisplay:10.37,2013-05-01 00:34:00,
2013-04-30 17:39:00,73.2,51.2,29.69,SSW,203,3.5,11.5,46,0.00,CLR,,0.00,WeatherDisplay:10.37,2013-05-01 00:39:00,
2013-04-30 17:44:00,72.5,50.5,29.69,SSW,211,3.6,6.0,46,0.00,CLR,,0.00,WeatherDisplay:10.37,2013-05-01 00:44:00,
2013-04-30 17:49:00,71.6,50.9,29.69,SW,217,5.5,11.5,48,0.00,CLR,,0.00,WeatherDisplay:10.37,2013-05-01 00:49:00,
2013-04-30 17:54:00,70.8,50.1,29.69,SSW,210,6.7,10.4,48,0.00,CLR,,0.00,WeatherDisplay:10.37,2013-05-01 00:54:00,
2013-04-30 17:59:00,70.6,50.5,29.69,NW,305,4.0,9.2,49,0.00,CLR,,0.00,WeatherDisplay:10.37,2013-05-01 00:59:00,
2013-04-30 18:04:00,70.1,50.6,29.69,SSW,207,4.5,10.0,50,0.00,CLR,,0.00,WeatherDisplay:10.37,2013-05-01 01:04:00,
2013-04-30 18:09:00,69.8,50.9,29.69,SSW,198,4.4,11.5,51,0.00,CLR,,0.00,WeatherDisplay:10.37,2013-05-01 01:09:00,
2013-04-30 18:14:00,69.1,50.7,29.70,SW,229,6.1,11.5,52,0.00,CLR,,0.00,WeatherDisplay:10.37,2013-05-01 01:14:00,
2013-04-30 18:19:00,68.8,51.0,29.70,SSW,207,2.3,10.4,53,0.00,CLR,,0.00,WeatherDisplay:10.37,2013-05-01 01:19:00,
2013-04-30 18:24:00,68.1,51.3,29.71,SSW,211,1.2,10.4,55,0.00,CLR,,0.00,WeatherDisplay:10.37,2013-05-01 01:24:00,
2013-04-30 18:29:00,67.6,50.9,29.71,SSW,203,4.8,11.5,55,0.00,CLR,,0.00,WeatherDisplay:10.37,2013-05-01 01:29:00,
2013-04-30 18:34:00,67.1,51.4,29.71,SW,226,4.1,9.2,57,0.00,CLR,,0.00,WeatherDisplay:10.37,2013-05-01 01:34:00,
2013-04-30 18:39:00,66.3,50.6,29.72,SW,217,4.7,16.1,57,0.00,CLR,,0.00,WeatherDisplay:10.37,2013-05-01 01:39:00,
2013-04-30 18:44:00,65.5,50.8,29.72,SSW,198,5.1,13.8,59,0.00,CLR,,0.00,WeatherDisplay:10.37,2013-05-01 01:44:00,
2013-04-30 18:49:00,64.7,50.9,29.72,SW,231,7.4,16.0,61,0.00,CLR,,0.00,WeatherDisplay:10.37,2013-05-01 01:49:00,
2013-04-30 18:54:00,63.9,50.6,29.73,NW,326,4.9,13.0,62,0.00,CLR,,0.00,WeatherDisplay:10.37,2013-05-01 01:54:00,
2013-04-30 18:59:00,63.4,50.6,29.74,SSW,210,4.4,11.0,63,0.00,CLR,,0.00,WeatherDisplay:10.37,2013-05-01 01:59:00,
2013-04-30 19:04:00,62.9,51.0,29.74,South,191,0.5,9.2,65,0.00,CLR,,0.00,WeatherDisplay:10.37,2013-05-01 02:04:00,
2013-04-30 19:09:00,62.6,50.7,29.74,SW,236,4.3,10.4,65,0.00,CLR,,0.00,WeatherDisplay:10.37,2013-05-01 02:09:00,
2013-04-30 19:14:00,62.3,50.8,29.74,SSW,205,5.4,10.4,66,0.00,CLR,,0.00,WeatherDisplay:10.37,2013-05-01 02:14:00,
2013-04-30 19:19:00,61.8,50.7,29.74,WSW,238,5.5,15.0,67,0.00,CLR,,0.00,WeatherDisplay:10.37,2013-05-01 02:19:00,
2013-04-30 19:24:00,61.3,51.0,29.74,SW,221,3.7,9.0,69,0.00,CLR,,0.00,WeatherDisplay:10.37,2013-05-01 02:24:00,
2013-04-30 19:29:00,60.7,50.9,29.75,SSW,212,1.7,5.0,70,0.00,CLR,,0.00,WeatherDisplay:10.37,2013-05-01 02:29:00,
2013-04-30 19:34:00,60.1,50.7,29.75,SSW,193,1.0,5.0,71,0.00,CLR,,0.00,WeatherDisplay:10.37,2013-05-01 02:34:00,
2013-04-30 19:39:00,59.9,50.5,29.76,SSW,208,0.9,7.0,71,0.00,CLR,,0.00,WeatherDisplay:10.37,2013-05-01 02:39:00,
2013-04-30 19:44:00,59.6,50.6,29.76,SW,226,0.7,3.5,72,0.00,CLR,,0.00,WeatherDisplay:10.37,2013-05-01 02:44:00,
2013-04-30 19:49:00,59.3,50.6,29.76,West,269,1.6,5.8,73,0.00,CLR,,0.00,WeatherDisplay:10.37,2013-05-01 02:49:00,
2013-04-30 19:54:00,59.0,50.7,29.76,West,269,0.7,5.8,74,0.00,CLR,,0.00,WeatherDisplay:10.37,2013-05-01 02:54:00,
2013-04-30 19:59:00,58.7,50.4,29.77,SW,219,0.3,2.3,74,0.00,CLR,,0.00,WeatherDisplay:10.37,2013-05-01 02:59:00,
2013-04-30 20:04:00,58.6,50.7,29.77,West,265,1.5,4.0,75,0.00,CLR,,0.00,WeatherDisplay:10.37,2013-05-01 03:04:00,
2013-04-30 20:09:00,58.3,50.4,29.77,SW,234,0.9,3.5,75,0.00,CLR,,0.00,WeatherDisplay:10.37,2013-05-01 03:09:00,
2013-04-30 20:14:00,58.1,50.6,29.77,SW,214,0.9,3.5,76,0.00,CLR,,0.00,WeatherDisplay:10.37,2013-05-01 03:14:00,
2013-04-30 20:19:00,58.0,50.5,29.78,SSW,200,0.9,5.0,76,0.00,CLR,,0.00,WeatherDisplay:10.37,2013-05-01 03:19:00,
2013-04-30 20:24:00,57.8,50.6,29.78,SSW,204,1.8,6.0,77,0.00,CLR,,0.00,WeatherDisplay:10.37,2013-05-01 03:24:00,
2013-04-30 20:29:00,57.6,50.8,29.78,WNW,299,0.8,3.5,78,0.00,CLR,,0.00,WeatherDisplay:10.37,2013-05-01 03:29:00,
2013-04-30 20:34:00,57.6,50.4,29.78,SSW,205,0.6,4.0,77,0.00,CLR,,0.00,WeatherDisplay:10.37,2013-05-01 03:34:00,
2013-04-30 20:39:00,57.5,50.7,29.78,WSW,255,1.0,4.0,78,0.00,CLR,,0.00,WeatherDisplay:10.37,2013-05-01 03:39:00,
2013-04-30 20:44:00,57.3,50.5,29.78,SSW,204,0.0,0.0,78,0.00,CLR,,0.00,WeatherDisplay:10.37,2013-05-01 03:44:00,
2013-04-30 20:49:00,57.5,51.0,29.79,SSW,207,0.0,1.2,79,0.00,CLR,,0.00,WeatherDisplay:10.37,2013-05-01 03:49:00,
2013-04-30 20:54:00,57.5,51.0,29.79,WSW,257,0.3,2.3,79,0.00,CLR,,0.00,WeatherDisplay:10.37,2013-05-01 03:54:00,
2013-04-30 20:59:00,57.3,50.5,29.79,SSW,210,1.7,4.0,78,0.00,CLR,,0.00,WeatherDisplay:10.37,2013-05-01 03:59:00,
2013-04-30 21:01:00,57.3,50.5,29.79,SSW,212,0.5,3.5,78,0.00,CLR,,0.00,WeatherDisplay:10.37,2013-05-01 04:01:00,
2013-04-30 21:02:00,57.3,50.5,29.79,SSW,212,0.2,4.6,78,0.00,CLR,,0.00,WeatherDisplay:10.37,2013-05-01 04:02:00,
2013-04-30 21:03:00,57.3,50.5,29.79,SSW,212,0.2,4.6,78,0.00,CLR,,0.00,WeatherDisplay:10.37,2013-05-01 04:03:00,
2013-04-30 21:08:00,57.2,50.7,29.78,West,263,0.0,2.0,79,0.00,CLR,,0.00,WeatherDisplay:10.37,2013-05-01 04:08:00,
2013-04-30 21:13:00,57.2,50.7,29.79,SW,236,0.1,3.5,79,0.00,CLR,,0.00,WeatherDisplay:10.37,2013-05-01 04:13:00,
2013-04-30 21:18:00,57.3,50.8,29.79,NW,304,1.5,4.0,79,0.00,CLR,,0.00,WeatherDisplay:10.37,2013-05-01 04:18:00,
2013-04-30 21:23:00,57.3,51.2,29.79,NW,304,0.1,1.2,80,0.00,CLR,,0.00,WeatherDisplay:10.37,2013-05-01 04:23:00,
2013-04-30 21:28:00,57.5,51.0,29.78,WNW,299,1.1,4.0,79,0.00,CLR,,0.00,WeatherDisplay:10.37,2013-05-01 04:28:00,
2013-04-30 21:33:00,57.6,51.1,29.78,WNW,290,2.2,5.0,79,0.00,CLR,,0.00,WeatherDisplay:10.37,2013-05-01 04:33:00,
2013-04-30 21:38:00,57.5,51.0,29.78,WNW,283,0.1,2.0,79,0.00,CLR,,0.00,WeatherDisplay:10.37,2013-05-01 04:38:00,
2013-04-30 21:43:00,57.5,51.0,29.78,West,262,1.0,4.0,79,0.00,CLR,,0.00,WeatherDisplay:10.37,2013-05-01 04:43:00,
2013-04-30 21:48:00,57.6,51.1,29.78,West,263,0.5,4.0,79,0.00,CLR,,0.00,WeatherDisplay:10.37,2013-05-01 04:48:00,
2013-04-30 21:53:00,57.6,51.5,29.78,WSW,251,1.0,5.0,80,0.00,CLR,,0.00,WeatherDisplay:10.37,2013-05-01 04:53:00,
2013-04-30 21:58:00,57.6,51.5,29.78,WSW,248,0.5,3.0,80,0.00,CLR,,0.00,WeatherDisplay:10.37,2013-05-01 04:58:00,
2013-04-30 22:03:00,57.6,51.1,29.78,WSW,249,0.1,1.2,79,0.00,CLR,,0.00,WeatherDisplay:10.37,2013-05-01 05:03:00,
2013-04-30 22:08:00,57.5,51.0,29.78,WSW,251,0.9,3.0,79,0.00,CLR,,0.00,WeatherDisplay:10.37,2013-05-01 05:08:00,
2013-04-30 22:13:00,57.5,51.0,29.78,WSW,257,1.9,4.0,79,0.00,CLR,,0.00,WeatherDisplay:10.37,2013-05-01 05:13:00,
2013-04-30 22:18:00,57.6,51.1,29.78,West,262,0.7,3.5,79,0.00,CLR,,0.00,WeatherDisplay:10.37,2013-05-01 05:18:00,
2013-04-30 22:23:00,57.5,51.0,29.78,West,267,0.1,3.5,79,0.00,CLR,,0.00,WeatherDisplay:10.37,2013-05-01 05:23:00,
2013-04-30 22:28:00,57.5,51.0,29.78,West,268,0.3,2.3,79,0.00,CLR,,0.00,WeatherDisplay:10.37,2013-05-01 05:28:00,
2013-04-30 22:33:00,57.5,51.0,29.78,West,269,0.4,3.5,79,0.00,CLR,,0.00,WeatherDisplay:10.37,2013-05-01 05:33:00,
2013-04-30 22:38:00,57.5,51.0,29.78,West,269,0.1,1.2,79,0.00,CLR,,0.00,WeatherDisplay:10.37,2013-05-01 05:38:00,
2013-04-30 22:43:00,57.6,51.1,29.79,West,269,0.0,0.0,79,0.00,CLR,,0.00,WeatherDisplay:10.37,2013-05-01 05:43:00,
2013-04-30 22:48:00,57.6,50.8,29.79,West,269,0.1,1.2,78,0.00,CLR,,0.00,WeatherDisplay:10.37,2013-05-01 05:48:00,
2013-04-30 22:53:00,57.6,50.8,29.79,West,270,0.4,2.3,78,0.00,CLR,,0.00,WeatherDisplay:10.37,2013-05-01 05:53:00,
2013-04-30 22:58:00,57.5,51.0,29.79,West,270,0.1,2.3,79,0.00,CLR,,0.00,WeatherDisplay:10.37,2013-05-01 05:58:00,
2013-04-30 23:03:00,57.5,51.0,29.79,West,270,0.1,3.0,79,0.00,CLR,,0.00,WeatherDisplay:10.37,2013-05-01 06:03:00,
2013-04-30 23:08:00,57.6,51.1,29.78,West,270,0.1,1.0,79,0.00,CLR,,0.00,WeatherDisplay:10.37,2013-05-01 06:08:00,
2013-04-30 23:13:00,57.5,50.7,29.79,West,268,0.0,0.0,78,0.00,CLR,,0.00,WeatherDisplay:10.37,2013-05-01 06:13:00,
2013-04-30 23:18:00,57.5,50.7,29.79,West,269,0.0,1.2,78,0.00,CLR,,0.00,WeatherDisplay:10.37,2013-05-01 06:18:00,
2013-04-30 23:23:00,57.5,50.7,29.79,West,269,0.1,1.0,78,0.00,CLR,,0.00,WeatherDisplay:10.37,2013-05-01 06:23:00,
2013-04-30 23:28:00,57.5,50.7,29.79,West,268,1.0,3.5,78,0.00,CLR,,0.00,WeatherDisplay:10.37,2013-05-01 06:28:00,
2013-04-30 23:33:00,57.5,50.7,29.79,West,269,0.7,2.3,78,0.00,CLR,,0.00,WeatherDisplay:10.37,2013-05-01 06:33:00,
2013-04-30 23:38:00,57.5,50.7,29.79,West,268,0.2,1.2,78,0.00,CLR,,0.00,WeatherDisplay:10.37,2013-05-01 06:38:00,
2013-04-30 23:43:00,57.5,50.7,29.79,West,268,0.5,3.5,78,0.00,CLR,,0.00,WeatherDisplay:10.37,2013-05-01 06:43:00,
2013-04-30 23:48:00,57.3,50.5,29.79,West,268,0.6,2.3,78,0.00,CLR,,0.00,WeatherDisplay:10.37,2013-05-01 06:48:00,
2013-04-30 23:53:00,57.3,50.5,29.79,West,268,0.0,2.3,78,0.00,CLR,,0.00,WeatherDisplay:10.37,2013-05-01 06:53:00,
2013-04-30 23:58:00,57.3,50.5,29.79,West,264,0.1,1.2,78,0.00,CLR,,0.00,WeatherDisplay:10.37,2013-05-01 06:58:00,